createdAt,value
2022-11-20T00:00:55.796Z,77.10
2022-11-20T00:03:26.539Z,75.70
2022-11-20T00:05:57.496Z,81.00
2022-11-20T00:08:28.243Z,80.30
2022-11-20T00:10:58.939Z,82.10
2022-11-20T00:13:29.898Z,83.60
2022-11-20T00:16:07.450Z,81.70
2022-11-20T00:18:38.999Z,83.70
2022-11-20T00:21:20.450Z,81.90
2022-11-20T00:23:55.675Z,78.90
2022-11-20T00:26:29.177Z,78.70
2022-11-20T00:29:02.448Z,77.90
2022-11-20T00:31:36.089Z,75.80
2022-11-20T00:34:06.898Z,77.10
2022-11-20T00:36:39.047Z,77.90
2022-11-20T00:39:10.967Z,77.40
2022-11-20T00:41:42.015Z,75.20
2022-11-20T00:44:14.629Z,77.40
2022-11-20T00:46:45.922Z,71.70
2022-11-20T00:49:16.579Z,75.10
2022-11-20T00:51:50.010Z,72.20
2022-11-20T00:54:20.685Z,72.70
2022-11-20T00:56:52.502Z,72.70
2022-11-20T00:59:23.465Z,74.20
2022-11-20T01:01:54.404Z,76.60
2022-11-20T01:04:25.001Z,78.20
2022-11-20T01:06:55.999Z,75.00
2022-11-20T01:09:26.696Z,75.60
2022-11-20T01:11:57.705Z,75.30
2022-11-20T01:14:28.514Z,74.30
2022-11-20T01:17:00.379Z,73.80
2022-11-20T01:19:30.973Z,73.90
2022-11-20T01:22:04.091Z,74.00
2022-11-20T01:24:34.759Z,73.40
2022-11-20T01:27:05.364Z,73.80
2022-11-20T01:29:35.983Z,73.90
2022-11-20T01:32:08.072Z,73.20
2022-11-20T01:34:41.142Z,74.80
2022-11-20T01:37:12.298Z,72.70
2022-11-20T01:39:42.918Z,71.90
2022-11-20T01:42:32.473Z,74.40
2022-11-20T01:45:06.013Z,73.00
2022-11-20T01:47:41.696Z,70.80
2022-11-20T01:50:30.294Z,72.00
2022-11-20T01:53:06.322Z,70.50
2022-11-20T01:55:42.940Z,69.60
2022-11-20T01:58:14.064Z,70.30
2022-11-20T02:00:45.726Z,69.30
2022-11-20T02:03:23.009Z,69.10
2022-11-20T02:06:08.247Z,70.00
2022-11-20T02:08:41.205Z,68.30
2022-11-20T02:11:12.022Z,68.20
2022-11-20T02:13:49.264Z,68.60
2022-11-20T02:16:31.955Z,70.90
2022-11-20T02:19:07.798Z,66.80
2022-11-20T02:21:50.645Z,64.90
2022-11-20T02:24:27.750Z,64.80
2022-11-20T02:27:05.911Z,67.40
2022-11-20T02:29:51.623Z,69.50
2022-11-20T02:32:27.829Z,69.50
2022-11-20T02:34:59.880Z,66.90
2022-11-20T02:37:38.719Z,66.80
2022-11-20T02:40:11.120Z,68.70
2022-11-20T02:42:42.998Z,69.60
2022-11-20T02:45:16.244Z,66.60
2022-11-20T02:47:47.243Z,65.90
2022-11-20T02:50:18.871Z,66.50
2022-11-20T02:52:49.581Z,66.20
2022-11-20T02:55:20.405Z,64.00
2022-11-20T02:57:52.327Z,65.80
2022-11-20T03:00:24.660Z,62.40
2022-11-20T03:02:55.949Z,64.40
2022-11-20T03:05:27.247Z,63.40
2022-11-20T03:07:58.872Z,63.20
2022-11-20T03:10:30.706Z,64.80
2022-11-20T03:13:02.265Z,65.50
2022-11-20T03:15:32.986Z,66.40
2022-11-20T03:18:03.710Z,64.50
2022-11-20T03:20:35.774Z,64.70
2022-11-20T03:23:08.278Z,64.70
2022-11-20T03:25:39.234Z,63.90
2022-11-20T03:28:09.908Z,66.20
2022-11-20T03:30:40.949Z,66.50
2022-11-20T03:33:11.779Z,66.40
2022-11-20T03:35:42.679Z,67.20
2022-11-20T03:38:13.616Z,67.90
2022-11-20T03:40:44.353Z,66.80
2022-11-20T03:43:15.349Z,68.10
2022-11-20T03:45:47.258Z,65.10
2022-11-20T03:48:19.494Z,66.70
2022-11-20T03:50:54.263Z,66.00
2022-11-20T03:53:26.336Z,66.80
2022-11-20T03:55:57.279Z,64.70
2022-11-20T03:58:28.198Z,65.70
2022-11-20T04:00:58.949Z,63.60
2022-11-20T04:03:30.595Z,64.70
2022-11-20T04:06:09.675Z,64.60
2022-11-20T04:08:40.478Z,61.80
2022-11-20T04:11:15.879Z,63.10
2022-11-20T04:13:50.219Z,63.80
2022-11-20T04:16:21.347Z,62.90
2022-11-20T04:19:01.172Z,63.60
2022-11-20T04:21:33.179Z,63.20
2022-11-20T04:24:04.574Z,62.30
2022-11-20T04:26:35.825Z,62.70
2022-11-20T04:29:06.796Z,60.10
2022-11-20T04:31:38.813Z,61.50
2022-11-20T04:34:11.487Z,62.10
2022-11-20T04:36:42.685Z,61.00
2022-11-20T04:39:19.855Z,60.50
2022-11-20T04:41:51.067Z,62.00
2022-11-20T04:44:21.793Z,61.60
2022-11-20T04:46:52.548Z,60.70
2022-11-20T04:49:24.429Z,63.20
2022-11-20T04:51:57.868Z,61.80
2022-11-20T04:54:30.780Z,64.20
2022-11-20T04:57:03.971Z,64.40
2022-11-20T04:59:35.540Z,61.80
2022-11-20T05:02:06.410Z,63.50
2022-11-20T05:04:37.017Z,64.50
2022-11-20T05:07:08.049Z,62.50
2022-11-20T05:09:38.796Z,63.10
2022-11-20T05:12:11.977Z,63.20
2022-11-20T05:14:42.720Z,63.50
2022-11-20T05:17:17.566Z,63.50
2022-11-20T05:19:52.893Z,64.40
2022-11-20T05:22:24.719Z,64.10
2022-11-20T05:24:57.396Z,64.90
2022-11-20T05:27:28.221Z,63.20
2022-11-20T05:29:59.265Z,64.00
2022-11-20T05:32:31.648Z,65.20
2022-11-20T05:35:02.525Z,67.10
2022-11-20T05:37:33.720Z,65.80
2022-11-20T05:40:04.427Z,65.40
2022-11-20T05:42:36.463Z,64.80
2022-11-20T05:45:11.917Z,64.20
2022-11-20T05:47:43.224Z,64.10
2022-11-20T05:50:15.684Z,63.60
2022-11-20T05:52:46.320Z,64.70
2022-11-20T05:55:17.048Z,65.30
2022-11-20T05:57:49.489Z,64.60
2022-11-20T06:00:23.779Z,64.10
2022-11-20T06:02:55.123Z,63.50
2022-11-20T06:05:25.848Z,64.80
2022-11-20T06:07:56.591Z,64.40
2022-11-20T06:10:29.857Z,64.80
2022-11-20T06:13:02.635Z,66.30
2022-11-20T06:15:34.850Z,64.30
2022-11-20T06:18:05.436Z,65.40
2022-11-20T06:20:41.802Z,66.10
2022-11-20T06:23:13.945Z,64.70
2022-11-20T06:25:46.478Z,64.00
2022-11-20T06:28:17.238Z,65.20
2022-11-20T06:30:52.997Z,65.10
2022-11-20T06:33:24.181Z,65.20
2022-11-20T06:35:59.877Z,65.70
2022-11-20T06:38:33.885Z,65.30
2022-11-20T06:41:04.538Z,65.30
2022-11-20T06:43:36.192Z,65.90
2022-11-20T06:46:07.011Z,65.80
2022-11-20T06:48:38.866Z,66.10
2022-11-20T06:51:11.057Z,66.30
2022-11-20T06:53:42.073Z,66.70
2022-11-20T06:56:13.960Z,66.50
2022-11-20T06:58:45.976Z,67.60
2022-11-20T07:01:18.632Z,68.10
2022-11-20T07:03:54.244Z,67.90
2022-11-20T07:09:26.387Z,68.00
2022-11-20T07:11:58.197Z,68.40
2022-11-20T07:14:29.139Z,68.90
2022-11-20T07:16:59.711Z,67.40
2022-11-20T07:19:31.541Z,67.10
2022-11-20T07:22:02.505Z,68.70
2022-11-20T07:24:36.354Z,66.00
2022-11-20T07:27:09.272Z,68.00
2022-11-20T07:29:39.619Z,69.10
2022-11-20T07:32:10.376Z,67.80
2022-11-20T07:34:40.684Z,67.80
2022-11-20T07:37:12.037Z,67.60
2022-11-20T07:39:42.968Z,67.50
2022-11-20T07:42:18.596Z,67.90
2022-11-20T07:44:49.248Z,68.70
2022-11-20T07:47:19.967Z,68.70
2022-11-20T07:49:52.220Z,68.10
2022-11-20T07:52:22.869Z,69.70
2022-11-20T07:54:53.585Z,68.70
2022-11-20T07:57:28.119Z,70.10
2022-11-20T07:59:59.325Z,70.10
2022-11-20T08:02:30.634Z,70.80
2022-11-20T08:05:03.762Z,71.00
2022-11-20T08:07:38.526Z,70.70
2022-11-20T08:10:12.946Z,70.70
2022-11-20T08:13:09.702Z,71.60
2022-11-20T08:15:42.052Z,71.00
2022-11-20T08:18:30.665Z,71.40
2022-11-20T08:21:06.705Z,73.10
2022-11-20T08:23:36.945Z,72.50
2022-11-20T08:26:07.682Z,71.90
2022-11-20T08:28:40.079Z,73.10
2022-11-20T08:31:11.932Z,72.10
2022-11-20T08:33:43.236Z,73.20
2022-11-20T08:36:13.897Z,72.80
2022-11-20T08:38:44.540Z,74.80
2022-11-20T08:41:28.470Z,75.30
2022-11-20T08:44:03.282Z,73.40
2022-11-20T08:46:46.274Z,73.90
2022-11-20T08:49:19.454Z,73.40
2022-11-20T08:51:54.843Z,72.80
2022-11-20T08:54:26.422Z,73.40
2022-11-20T08:56:57.311Z,72.80
2022-11-20T08:59:50.784Z,73.30
2022-11-20T09:02:18.938Z,73.80
2022-11-20T09:04:49.612Z,73.00
2022-11-20T09:07:20.709Z,74.40
2022-11-20T09:10:10.023Z,74.20
2022-11-20T09:12:43.374Z,75.10
2022-11-20T09:15:14.885Z,74.90
2022-11-20T09:17:45.615Z,74.40
2022-11-20T09:20:17.756Z,75.50
2022-11-20T09:22:49.754Z,75.20
2022-11-20T09:25:21.398Z,75.50
2022-11-20T09:27:51.888Z,74.70
2022-11-20T09:30:22.496Z,75.80
2022-11-20T09:32:53.204Z,75.40
2022-11-20T09:35:23.413Z,76.10
2022-11-20T09:37:54.534Z,75.00
2022-11-20T09:40:32.486Z,76.20
2022-11-20T09:43:34.848Z,75.90
2022-11-20T09:46:45.409Z,76.00
2022-11-20T09:49:37.326Z,75.10
2022-11-20T09:52:30.666Z,75.70
2022-11-20T09:55:01.808Z,76.70
2022-11-20T09:57:46.599Z,76.40
2022-11-20T10:00:19.624Z,75.10
2022-11-20T10:03:18.334Z,75.10
2022-11-20T10:05:56.612Z,75.30
2022-11-20T10:08:39.764Z,74.80
2022-11-20T10:11:22.802Z,76.60
2022-11-20T10:14:30.373Z,75.70
2022-11-20T10:17:27.158Z,75.40
2022-11-20T10:20:34.441Z,74.10
2022-11-20T10:23:38.490Z,74.10
2022-11-20T10:26:26.346Z,73.70
2022-11-20T10:29:17.166Z,75.00
2022-11-20T10:32:20.143Z,75.60
2022-11-20T10:35:13.568Z,74.80
2022-11-20T10:37:51.244Z,75.20
2022-11-20T10:40:47.834Z,75.00
2022-11-20T10:43:35.605Z,75.40
2022-11-20T10:46:46.696Z,75.70
2022-11-20T10:49:23.412Z,76.20
2022-11-20T10:52:30.727Z,76.10
2022-11-20T10:55:17.416Z,75.30
2022-11-20T10:58:07.477Z,76.80
2022-11-20T11:00:38.291Z,76.00
2022-11-20T11:03:27.366Z,77.00
2022-11-20T11:06:11.794Z,76.30
2022-11-20T11:08:44.364Z,77.40
2022-11-20T11:11:51.171Z,77.60
2022-11-20T11:14:22.954Z,77.40
2022-11-20T11:16:55.941Z,77.40
2022-11-20T11:19:26.970Z,77.50
2022-11-20T11:22:01.315Z,77.90
2022-11-20T11:24:42.657Z,77.10
2022-11-20T11:27:20.665Z,77.50
2022-11-20T11:29:51.541Z,77.30
2022-11-20T11:32:26.087Z,78.00
2022-11-20T11:35:07.553Z,77.80
2022-11-20T11:37:40.922Z,78.80
2022-11-20T11:40:24.010Z,79.00
2022-11-20T11:43:09.288Z,78.00
2022-11-20T11:45:42.024Z,80.10
2022-11-20T11:48:14.498Z,80.20
2022-11-20T11:50:53.480Z,80.70
2022-11-20T11:53:29.796Z,80.90
2022-11-20T11:56:12.240Z,79.80
2022-11-20T11:58:58.555Z,82.10
2022-11-20T12:01:50.104Z,81.10
2022-11-20T12:04:42.338Z,79.10
2022-11-20T12:07:50.825Z,81.60
2022-11-20T12:10:21.644Z,83.80
2022-11-20T12:13:14.384Z,84.20
2022-11-20T12:15:49.681Z,82.70
2022-11-20T12:18:22.629Z,83.50
2022-11-20T12:21:16.454Z,83.80
2022-11-20T12:24:11.543Z,83.90
2022-11-20T12:26:57.529Z,84.10
2022-11-20T12:30:02.188Z,84.20
2022-11-20T12:32:41.244Z,85.20
2022-11-20T12:35:32.845Z,86.00
2022-11-20T12:38:21.679Z,86.00
2022-11-20T12:40:58.251Z,86.20
2022-11-20T12:44:23.244Z,86.70
2022-11-20T12:47:27.797Z,86.50
2022-11-20T12:50:08.458Z,87.40
2022-11-20T12:52:42.441Z,87.80
2022-11-20T12:55:21.416Z,87.50
2022-11-20T12:58:27.806Z,87.50
2022-11-20T13:01:32.548Z,87.00
2022-11-20T13:04:14.204Z,88.00
2022-11-20T13:06:45.210Z,87.00
2022-11-20T13:09:21.254Z,87.50
2022-11-20T13:12:09.622Z,87.70
2022-11-20T13:14:44.273Z,87.40
2022-11-20T13:17:26.725Z,86.60
2022-11-20T13:20:01.783Z,87.20
2022-11-20T13:22:50.073Z,87.10
2022-11-20T13:25:31.712Z,86.70
2022-11-20T13:28:28.057Z,86.30
2022-11-20T13:31:01.523Z,86.80
2022-11-20T13:33:39.367Z,87.10
2022-11-20T13:36:25.693Z,86.50
2022-11-20T13:38:58.528Z,85.60
2022-11-20T13:41:44.142Z,85.20
2022-11-20T13:44:17.562Z,84.30
2022-11-20T13:46:50.473Z,84.30
2022-11-20T13:49:30.181Z,84.30
2022-11-20T13:52:26.698Z,85.50
2022-11-20T13:55:16.966Z,84.50
2022-11-20T13:58:05.385Z,84.70
2022-11-20T14:00:36.784Z,84.00
2022-11-20T14:03:58.566Z,84.50
2022-11-20T14:06:47.958Z,84.30
2022-11-20T14:09:38.500Z,84.40
2022-11-20T14:12:24.862Z,83.60
2022-11-20T14:14:58.519Z,82.60
2022-11-20T14:17:38.138Z,82.70
2022-11-20T14:20:15.677Z,82.50
2022-11-20T14:22:53.902Z,81.30
2022-11-20T14:25:35.335Z,82.40
2022-11-20T14:28:07.918Z,82.80
2022-11-20T14:30:42.549Z,83.80
2022-11-20T14:33:18.408Z,85.00
2022-11-20T14:36:00.149Z,86.40
2022-11-20T14:38:37.420Z,87.60
2022-11-20T14:41:13.252Z,87.10
2022-11-20T14:43:50.481Z,88.60
2022-11-20T14:46:23.127Z,90.70
2022-11-20T14:49:01.455Z,91.00
2022-11-20T14:51:38.217Z,91.30
2022-11-20T14:54:16.689Z,92.10
2022-11-20T14:57:07.713Z,92.20
2022-11-20T14:59:38.858Z,91.70
2022-11-20T15:02:22.301Z,92.10
2022-11-20T15:05:06.305Z,92.30
2022-11-20T15:07:40.940Z,93.00
2022-11-20T15:10:17.550Z,92.70
2022-11-20T15:12:56.788Z,92.70
2022-11-20T15:15:33.192Z,92.50
2022-11-20T15:18:04.297Z,92.90
2022-11-20T15:20:36.966Z,92.70
2022-11-20T15:23:15.023Z,92.30
2022-11-20T15:25:46.215Z,92.30
2022-11-20T15:28:33.892Z,91.80
2022-11-20T15:31:05.570Z,92.70
2022-11-20T15:33:38.835Z,92.10
2022-11-20T15:36:09.643Z,92.60
2022-11-20T15:38:40.762Z,92.50
2022-11-20T15:41:13.067Z,93.00
2022-11-20T15:43:44.054Z,93.30
2022-11-20T15:46:17.649Z,93.30
2022-11-20T15:48:51.093Z,93.00
2022-11-20T15:51:29.514Z,93.30
2022-11-20T15:54:00.817Z,93.60
2022-11-20T15:56:31.604Z,93.60
2022-11-20T15:59:02.313Z,94.00
2022-11-20T16:01:33.686Z,93.80
2022-11-20T16:04:04.932Z,93.60
2022-11-20T16:06:35.625Z,93.30
2022-11-20T16:09:06.981Z,93.30
2022-11-20T16:11:41.313Z,93.60
2022-11-20T16:14:32.738Z,93.70
2022-11-20T16:17:05.859Z,94.10
2022-11-20T16:19:36.562Z,94.70
2022-11-20T16:22:07.974Z,94.20
2022-11-20T16:24:42.866Z,94.50
2022-11-20T16:27:15.075Z,94.50
2022-11-20T16:29:45.274Z,94.30
2022-11-20T16:32:15.760Z,94.60
2022-11-20T16:34:47.367Z,94.50
2022-11-20T16:37:18.938Z,94.70
2022-11-20T16:39:49.230Z,94.90
2022-11-20T16:42:19.530Z,95.00
2022-11-20T16:44:50.091Z,95.00
2022-11-20T16:47:21.031Z,94.70
2022-11-20T16:49:51.228Z,94.80
2022-11-20T16:52:21.495Z,95.10
2022-11-20T16:54:52.029Z,95.20
2022-11-20T16:57:22.300Z,94.70
2022-11-20T16:59:52.701Z,95.40
2022-11-20T17:02:22.964Z,95.10
2022-11-20T17:04:53.178Z,95.30
2022-11-20T17:07:23.696Z,95.10
2022-11-20T17:09:54.004Z,95.40
2022-11-20T17:12:24.306Z,95.20
2022-11-20T17:14:54.818Z,95.30
2022-11-20T17:17:25.071Z,95.30
2022-11-20T17:19:55.414Z,95.70
2022-11-20T17:22:25.662Z,96.10
2022-11-20T17:24:59.675Z,96.30
2022-11-20T17:27:31.206Z,96.00
2022-11-20T17:30:02.397Z,96.10
2022-11-20T17:32:32.970Z,96.00
2022-11-20T17:35:03.726Z,96.10
2022-11-20T17:37:34.099Z,96.10
2022-11-20T17:40:04.569Z,96.00
2022-11-20T17:42:38.424Z,96.00
2022-11-20T17:45:09.009Z,95.90
2022-11-20T17:47:39.641Z,96.00
2022-11-20T17:50:10.428Z,96.10
2022-11-20T17:52:40.608Z,96.20
2022-11-20T17:55:12.395Z,95.60
2022-11-20T17:57:55.160Z,94.90
2022-11-20T18:00:26.969Z,95.10
2022-11-20T18:02:57.626Z,94.80
2022-11-20T18:05:29.965Z,94.80
2022-11-20T18:08:00.198Z,95.00
2022-11-20T18:10:33.539Z,95.10
2022-11-20T18:13:04.096Z,94.80
2022-11-20T18:15:34.758Z,95.30
2022-11-20T18:18:05.794Z,95.30
2022-11-20T18:20:39.796Z,95.70
2022-11-20T18:23:10.758Z,95.20
2022-11-20T18:25:41.552Z,95.20
2022-11-20T18:28:11.836Z,95.40
2022-11-20T18:30:42.133Z,95.20
2022-11-20T18:33:13.465Z,95.00
2022-11-20T18:35:45.337Z,95.30
2022-11-20T18:38:15.585Z,95.00
2022-11-20T18:40:47.093Z,95.30
2022-11-20T18:43:35.433Z,95.30
2022-11-20T18:46:07.409Z,95.30
2022-11-20T18:48:38.418Z,95.40
2022-11-20T18:51:14.069Z,95.40
2022-11-20T18:53:47.307Z,95.40
2022-11-20T18:56:18.081Z,95.50
2022-11-20T18:58:49.280Z,95.70
2022-11-20T19:01:19.795Z,94.90
2022-11-20T19:03:50.523Z,94.20
2022-11-20T19:06:22.409Z,94.60
2022-11-20T19:08:52.686Z,94.90
2022-11-20T19:11:22.973Z,94.90
2022-11-20T19:13:53.931Z,95.00
2022-11-20T19:16:24.640Z,94.60
2022-11-20T19:18:57.148Z,94.70
2022-11-20T19:21:29.529Z,95.00
2022-11-20T19:24:01.924Z,95.10
2022-11-20T19:26:32.574Z,95.50
2022-11-20T19:29:02.759Z,95.60
2022-11-20T19:31:33.134Z,95.70
2022-11-20T19:34:06.737Z,95.50
2022-11-20T19:36:44.532Z,94.80
2022-11-20T19:39:15.756Z,94.80
2022-11-20T19:41:46.314Z,94.40
2022-11-20T19:44:19.518Z,94.60
2022-11-20T19:46:51.447Z,94.30
2022-11-20T19:49:22.099Z,95.00
2022-11-20T19:51:52.970Z,93.90
2022-11-20T19:54:24.503Z,94.10
2022-11-20T19:56:54.962Z,94.50
2022-11-20T19:59:26.796Z,94.30
2022-11-20T20:01:57.332Z,94.30
2022-11-20T20:04:27.677Z,94.10
2022-11-20T20:06:58.420Z,94.40
2022-11-20T20:09:29.337Z,93.70
2022-11-20T20:11:59.712Z,93.40
2022-11-20T20:14:30.025Z,93.60
2022-11-20T20:17:00.336Z,93.60
2022-11-20T20:19:30.714Z,93.30
2022-11-20T20:22:02.351Z,92.40
2022-11-20T20:24:32.571Z,92.40
2022-11-20T20:27:03.028Z,93.00
2022-11-20T20:29:33.228Z,92.60
2022-11-20T20:32:03.673Z,92.80
2022-11-20T20:34:34.359Z,93.10
2022-11-20T20:37:06.902Z,92.80
2022-11-20T20:39:37.579Z,91.80
2022-11-20T20:42:08.590Z,91.70
2022-11-20T20:44:57.312Z,92.00
2022-11-20T20:47:32.819Z,92.20
2022-11-20T20:50:06.679Z,90.50
2022-11-20T20:52:40.912Z,89.30
2022-11-20T20:55:12.296Z,86.90
2022-11-20T20:57:44.270Z,88.20
2022-11-20T21:00:15.228Z,86.30
2022-11-20T21:02:46.563Z,87.40
2022-11-20T21:05:17.407Z,83.20
2022-11-20T21:08:06.250Z,83.60
2022-11-20T21:10:37.197Z,85.20
2022-11-20T21:13:09.519Z,84.10
2022-11-20T21:15:42.184Z,82.50
2022-11-20T21:18:14.098Z,80.80
2022-11-20T21:21:03.459Z,81.90
2022-11-20T21:23:35.181Z,82.00
2022-11-20T21:26:08.902Z,80.20
2022-11-20T21:28:40.515Z,79.40
2022-11-20T21:31:17.738Z,78.30
2022-11-20T21:33:50.495Z,76.50
2022-11-20T21:36:24.534Z,76.90
2022-11-20T21:39:00.463Z,76.40
2022-11-20T21:41:35.373Z,74.70
2022-11-20T21:44:30.264Z,74.70
2022-11-20T21:46:57.464Z,74.80
2022-11-20T21:49:27.895Z,73.50
2022-11-20T21:51:58.615Z,73.30
2022-11-20T21:54:29.400Z,73.10
2022-11-20T21:57:01.897Z,71.30
2022-11-20T21:59:32.636Z,71.00
2022-11-20T22:02:03.361Z,72.90
2022-11-20T22:04:34.402Z,70.10
2022-11-20T22:07:07.953Z,70.80
2022-11-20T22:09:39.807Z,67.60
2022-11-20T22:12:12.176Z,68.40
2022-11-20T22:14:42.857Z,69.00
2022-11-20T22:17:17.289Z,70.20
2022-11-20T22:19:48.125Z,68.90
2022-11-20T22:22:18.831Z,71.20
2022-11-20T22:24:49.587Z,71.90
2022-11-20T22:27:20.583Z,71.00
2022-11-20T22:29:51.245Z,66.00
2022-11-20T22:32:21.884Z,66.60
2022-11-20T22:34:52.518Z,70.00
2022-11-20T22:37:23.169Z,68.60
2022-11-20T22:39:53.773Z,70.00
2022-11-20T22:42:24.442Z,70.80
2022-11-20T22:44:55.108Z,70.70
2022-11-20T22:47:26.115Z,71.20
2022-11-20T22:49:56.729Z,75.50
2022-11-20T22:52:27.442Z,78.90
2022-11-20T22:54:58.024Z,80.30
2022-11-20T22:57:29.614Z,80.80
2022-11-20T23:00:00.267Z,78.90
2022-11-20T23:02:30.913Z,78.90
2022-11-20T23:05:01.580Z,77.80
2022-11-20T23:07:39.709Z,76.80
2022-11-20T23:10:11.972Z,74.70
2022-11-20T23:12:44.596Z,74.40
2022-11-20T23:15:15.326Z,73.20
2022-11-20T23:17:46.199Z,72.40
2022-11-20T23:20:16.890Z,72.50
2022-11-20T23:22:47.654Z,72.30
2022-11-20T23:25:18.819Z,71.50
2022-11-20T23:27:49.480Z,71.80
2022-11-20T23:30:21.542Z,71.60
2022-11-20T23:32:52.307Z,74.50
2022-11-20T23:35:23.024Z,76.20
2022-11-20T23:37:55.313Z,73.50
2022-11-20T23:40:26.071Z,77.10
2022-11-20T23:43:14.818Z,80.30
2022-11-20T23:45:51.187Z,78.90
2022-11-20T23:48:23.036Z,80.30
2022-11-20T23:50:54.065Z,81.30
2022-11-20T23:53:24.823Z,80.10
2022-11-20T23:55:57.975Z,79.60
2022-11-20T23:58:33.588Z,79.70
